Time;durP1;ratioP1;P1;durP2;ratioP2;P2;SDS_P1;SDS_P2;PMS_P1;PMS_P2;Temp;Humidity;BMP_temperature;BMP_pressure;BME280_temperature;BME280_humidity;BME280_pressure;Samples;Min_cycle;Max_cycle;Signal;HPM_P1;HPM_P2
2023/01/03 00:01:30;;;;;;;2.88;1.92;;;;;;;;;;5048842;28;20505;-77
2023/01/03 00:03:57;;;;;;;2.40;1.60;;;;;;;;;;5052659;28;20025;-78
2023/01/03 00:06:25;;;;;;;2.08;1.98;;;;;;;;;;5046724;28;20076;-77
2023/01/03 00:08:51;;;;;;;5.10;1.95;;;;;;;;;;5045983;28;20114;-77
2023/01/03 00:11:19;;;;;;;1.60;1.50;;;;;;;;;;5051810;28;20071;-78
2023/01/03 00:13:45;;;;;;;4.45;1.70;;;;;;;;;;5051733;28;20094;-77
2023/01/03 00:16:18;;;;;;;3.38;2.53;;;;;;;;;;5045133;28;20025;-77
2023/01/03 00:18:45;;;;;;;1.75;1.60;;;;;;;;;;5051978;28;20024;-77
2023/01/03 00:21:11;;;;;;;1.83;1.63;;;;;;;;;;5046015;28;20031;-77
2023/01/03 00:23:37;;;;;;;1.85;1.60;;;;;;;;;;5052288;28;20039;-77
2023/01/03 00:26:10;;;;;;;2.15;1.55;;;;;;;;;;5049888;28;20083;-77
2023/01/03 00:28:36;;;;;;;3.38;1.88;;;;;;;;;;5047939;28;20025;-77
2023/01/03 00:31:10;;;;;;;3.15;1.73;;;;;;;;;;5043789;28;20025;-77
2023/01/03 00:33:39;;;;;;;1.55;1.45;;;;;;;;;;5047621;28;20025;-77
2023/01/03 00:36:08;;;;;;;2.67;1.58;;;;;;;;;;5053092;28;20028;-77
2023/01/03 00:38:34;;;;;;;3.28;1.77;;;;;;;;;;5041678;28;20056;-77
2023/01/03 00:41:11;;;;;;;2.22;1.50;;;;;;;;;;5049909;28;20036;-77
2023/01/03 00:43:38;;;;;;;3.88;1.85;;;;;;;;;;5048026;28;20017;-77
2023/01/03 00:46:04;;;;;;;4.18;1.65;;;;;;;;;;5052926;28;20029;-77
2023/01/03 00:48:31;;;;;;;2.63;1.30;;;;;;;;;;5043984;28;20037;-77
2023/01/03 00:50:57;;;;;;;1.75;1.50;;;;;;;;;;5050569;28;20025;-76
2023/01/03 00:53:23;;;;;;;2.90;2.03;;;;;;;;;;5044234;28;20369;-78
2023/01/03 00:55:50;;;;;;;2.83;1.40;;;;;;;;;;5055347;28;20036;-77
2023/01/03 00:58:16;;;;;;;1.50;1.40;;;;;;;;;;5056793;28;20100;-77
2023/01/03 01:00:42;;;;;;;2.95;1.50;;;;;;;;;;5053576;28;20036;-77
2023/01/03 01:03:08;;;;;;;1.70;1.60;;;;;;;;;;5063491;28;20033;-77
2023/01/03 01:05:34;;;;;;;5.47;1.65;;;;;;;;;;5054716;28;20113;-77
2023/01/03 01:08:00;;;;;;;2.88;1.80;;;;;;;;;;5042967;28;20028;-77
2023/01/03 01:10:26;;;;;;;3.25;1.40;;;;;;;;;;5055258;28;20029;-77
2023/01/03 01:12:55;;;;;;;1.95;1.48;;;;;;;;;;5052147;28;20032;-77
2023/01/03 01:15:22;;;;;;;1.83;1.65;;;;;;;;;;5057027;28;20074;-78
2023/01/03 01:17:48;;;;;;;1.80;1.40;;;;;;;;;;5054936;28;20028;-77
2023/01/03 01:20:16;;;;;;;3.88;2.20;;;;;;;;;;5050691;28;20136;-77
2023/01/03 01:22:42;;;;;;;4.28;2.40;;;;;;;;;;5050537;28;20033;-77
2023/01/03 01:25:08;;;;;;;3.20;1.70;;;;;;;;;;5053763;28;20116;-77
2023/01/03 01:27:34;;;;;;;1.60;1.50;;;;;;;;;;5055099;28;20017;-77
2023/01/03 01:30:00;;;;;;;1.77;1.27;;;;;;;;;;5047445;28;20465;-77
2023/01/03 01:32:26;;;;;;;6.18;1.80;;;;;;;;;;5051797;28;20082;-78
2023/01/03 01:34:52;;;;;;;2.75;2.00;;;;;;;;;;5047709;28;20040;-77
2023/01/03 01:37:19;;;;;;;6.13;2.00;;;;;;;;;;5050659;28;20033;-77
2023/01/03 01:39:45;;;;;;;2.00;1.25;;;;;;;;;;5048252;28;20027;-77
2023/01/03 01:45:01;;;;;;;1.63;1.40;;;;;;;;;;5050311;28;20091;-77
2023/01/03 01:47:39;;;;;;;3.53;1.70;;;;;;;;;;5063723;28;20079;-77
2023/01/03 01:50:12;;;;;;;4.03;1.67;;;;;;;;;;5050364;28;20097;-77
2023/01/03 01:52:40;;;;;;;4.70;1.83;;;;;;;;;;5042195;28;20033;-77
2023/01/03 01:55:07;;;;;;;4.93;1.83;;;;;;;;;;5053607;28;20017;-78
2023/01/03 01:57:35;;;;;;;1.50;1.40;;;;;;;;;;5046320;28;20029;-77
2023/01/03 02:00:01;;;;;;;3.08;1.63;;;;;;;;;;5053053;28;20028;-77
2023/01/03 02:02:27;;;;;;;3.58;1.48;;;;;;;;;;5053298;28;20032;-77
2023/01/03 02:04:55;;;;;;;7.30;2.70;;;;;;;;;;5049494;28;20603;-76
2023/01/03 02:07:21;;;;;;;3.92;1.80;;;;;;;;;;5053757;28;20037;-77
2023/01/03 02:09:48;;;;;;;4.47;2.10;;;;;;;;;;5042883;28;20029;-77
2023/01/03 02:15:15;;;;;;;11.50;3.55;;;;;;;;;;5048008;28;20112;-77
2023/01/03 02:18:01;;;;;;;5.70;2.92;;;;;;;;;;5050796;28;20029;-77
2023/01/03 02:20:27;;;;;;;3.35;1.90;;;;;;;;;;5016185;28;20083;-77
2023/01/03 02:22:56;;;;;;;3.47;1.50;;;;;;;;;;5052250;28;20024;-77
2023/01/03 02:25:41;;;;;;;4.47;1.55;;;;;;;;;;5046556;28;20045;-77
2023/01/03 02:28:10;;;;;;;3.45;1.60;;;;;;;;;;5056243;28;20464;-77
2023/01/03 02:30:46;;;;;;;4.68;1.80;;;;;;;;;;5052940;28;20450;-77
2023/01/03 02:33:30;;;;;;;5.22;1.95;;;;;;;;;;5050632;28;20481;-78
2023/01/03 02:36:03;;;;;;;4.18;1.70;;;;;;;;;;5046481;28;20033;-76
2023/01/03 02:38:42;;;;;;;1.77;1.45;;;;;;;;;;5050711;28;20044;-77
2023/01/03 02:41:27;;;;;;;1.92;1.52;;;;;;;;;;5051484;28;20040;-77
2023/01/03 02:43:59;;;;;;;1.55;1.30;;;;;;;;;;5048508;28;20040;-77
2023/01/03 02:46:42;;;;;;;1.40;1.30;;;;;;;;;;5052981;28;20025;-77
2023/01/03 02:49:09;;;;;;;3.83;1.50;;;;;;;;;;5052675;28;20032;-77
2023/01/03 02:51:37;;;;;;;1.50;1.40;;;;;;;;;;5047583;28;20489;-77
2023/01/03 02:54:05;;;;;;;1.30;1.13;;;;;;;;;;5051895;28;20021;-77
2023/01/03 02:56:37;;;;;;;1.13;1.10;;;;;;;;;;5039178;28;20128;-77
2023/01/03 02:59:07;;;;;;;2.10;1.40;;;;;;;;;;5053541;28;20027;-77
2023/01/03 03:01:35;;;;;;;1.50;1.40;;;;;;;;;;5047424;28;20037;-77
2023/01/03 03:04:01;;;;;;;1.30;1.20;;;;;;;;;;5045554;28;20498;-78
2023/01/03 03:06:32;;;;;;;1.35;1.27;;;;;;;;;;5049930;28;20032;-77
2023/01/03 03:08:58;;;;;;;3.55;1.38;;;;;;;;;;5045346;28;20032;-77
2023/01/03 03:14:12;;;;;;;1.33;1.23;;;;;;;;;;5042091;28;20035;-76
2023/01/03 03:16:48;;;;;;;1.10;1.10;;;;;;;;;;5050542;28;20070;-77
2023/01/03 03:25:02;;;;;;;2.13;1.30;;;;;;;;;;5041453;28;20459;-76
2023/01/03 03:30:16;;;;;;;1.10;1.10;;;;;;;;;;5048492;28;20040;-77
2023/01/03 03:32:43;;;;;;;2.92;1.13;;;;;;;;;;5050298;28;20572;-77
2023/01/03 03:35:12;;;;;;;1.20;1.10;;;;;;;;;;5042845;28;20072;-76
2023/01/03 03:37:39;;;;;;;1.00;1.00;;;;;;;;;;5048687;28;21270;-77
2023/01/03 03:45:58;;;;;;;1.15;1.15;;;;;;;;;;5051853;28;20451;-77
2023/01/03 03:51:31;;;;;;;1.00;1.00;;;;;;;;;;5046911;28;20048;-77
2023/01/03 03:53:59;;;;;;;1.33;1.10;;;;;;;;;;5044112;28;20574;-77
2023/01/03 03:56:30;;;;;;;1.17;1.17;;;;;;;;;;5046477;28;20124;-77
2023/01/03 03:59:00;;;;;;;3.47;1.35;;;;;;;;;;5043526;28;20124;-77
2023/01/03 04:01:26;;;;;;;1.20;1.20;;;;;;;;;;5045078;28;20493;-77
2023/01/03 04:03:54;;;;;;;1.00;1.00;;;;;;;;;;5050896;28;20025;-76
2023/01/03 04:06:24;;;;;;;1.10;1.10;;;;;;;;;;5050240;28;20104;-76
2023/01/03 04:08:50;;;;;;;1.20;1.20;;;;;;;;;;5038390;28;20090;-76
2023/01/03 04:11:16;;;;;;;1.27;1.27;;;;;;;;;;5042842;28;20035;-76
2023/01/03 04:13:42;;;;;;;1.10;1.10;;;;;;;;;;5042699;28;20531;-77
2023/01/03 04:16:08;;;;;;;0.90;0.90;;;;;;;;;;5049565;28;20047;-76
2023/01/03 04:18:35;;;;;;;1.40;1.30;;;;;;;;;;5049688;28;20036;-77
2023/01/03 04:21:01;;;;;;;1.58;1.42;;;;;;;;;;5045005;28;20524;-77
2023/01/03 04:23:27;;;;;;;1.27;1.27;;;;;;;;;;5043759;28;20048;-76
2023/01/03 04:25:53;;;;;;;1.10;1.10;;;;;;;;;;5041159;28;20029;-76
2023/01/03 04:28:19;;;;;;;1.15;1.15;;;;;;;;;;5046649;28;20067;-77
2023/01/03 04:30:46;;;;;;;1.23;1.20;;;;;;;;;;5049804;28;20417;-76
2023/01/03 04:33:12;;;;;;;2.67;1.42;;;;;;;;;;5039040;28;20565;-76
2023/01/03 04:35:38;;;;;;;1.10;1.10;;;;;;;;;;5047563;28;20032;-76
2023/01/03 04:38:05;;;;;;;1.60;1.25;;;;;;;;;;5041278;28;20524;-76
2023/01/03 04:40:33;;;;;;;3.58;1.52;;;;;;;;;;5047911;28;20021;-77
2023/01/03 04:45:44;;;;;;;2.30;1.50;;;;;;;;;;5044992;28;20036;-77
2023/01/03 04:48:10;;;;;;;1.52;1.27;;;;;;;;;;5048537;28;20052;-77
2023/01/03 04:50:36;;;;;;;1.25;1.23;;;;;;;;;;5045524;28;20071;-77
2023/01/03 04:53:02;;;;;;;4.50;2.30;;;;;;;;;;5041923;28;20025;-77
2023/01/03 04:55:28;;;;;;;4.15;1.30;;;;;;;;;;5046768;28;20379;-77
2023/01/03 04:57:54;;;;;;;3.47;1.50;;;;;;;;;;5050611;28;20017;-76
2023/01/03 05:00:21;;;;;;;3.75;1.77;;;;;;;;;;5041504;28;20025;-77
2023/01/03 05:02:47;;;;;;;1.35;1.25;;;;;;;;;;5043527;28;20021;-77
2023/01/03 05:05:13;;;;;;;2.03;1.60;;;;;;;;;;5044782;28;20025;-77
2023/01/03 05:07:39;;;;;;;4.47;1.67;;;;;;;;;;5045056;28;20392;-77
2023/01/03 05:10:05;;;;;;;3.72;1.90;;;;;;;;;;5048593;28;20032;-77
2023/01/03 05:12:31;;;;;;;2.10;1.70;;;;;;;;;;5049910;28;20032;-77
2023/01/03 05:14:57;;;;;;;4.55;1.65;;;;;;;;;;5039893;28;20036;-77
2023/01/03 05:17:23;;;;;;;2.85;1.60;;;;;;;;;;5043112;28;20017;-77
2023/01/03 05:28:04;;;;;;;6.60;2.10;;;;;;;;;;5051036;28;20064;-77
2023/01/03 05:30:30;;;;;;;2.95;1.80;;;;;;;;;;5038006;28;20461;-77
2023/01/03 05:32:57;;;;;;;3.05;1.70;;;;;;;;;;5048015;28;20029;-77
2023/01/03 05:35:23;;;;;;;5.95;1.80;;;;;;;;;;5047858;28;20061;-77
2023/01/03 05:37:52;;;;;;;4.68;2.10;;;;;;;;;;5048724;28;20048;-77
2023/01/03 05:40:18;;;;;;;6.30;1.95;;;;;;;;;;5042068;28;20277;-77
2023/01/03 05:42:44;;;;;;;5.70;2.13;;;;;;;;;;5050485;28;20055;-77
2023/01/03 05:45:10;;;;;;;7.60;2.00;;;;;;;;;;5044789;28;20022;-77
2023/01/03 05:47:37;;;;;;;8.07;2.10;;;;;;;;;;5051841;28;20021;-77
2023/01/03 05:50:03;;;;;;;7.45;2.22;;;;;;;;;;5053539;28;20044;-77
2023/01/03 05:52:29;;;;;;;2.85;2.20;;;;;;;;;;5045047;28;20657;-77
2023/01/03 05:54:55;;;;;;;4.72;2.70;;;;;;;;;;5061549;28;20021;-77
2023/01/03 05:57:21;;;;;;;7.38;2.10;;;;;;;;;;5053009;28;20476;-77
2023/01/03 05:59:47;;;;;;;3.92;1.85;;;;;;;;;;5040592;28;20695;-77
2023/01/03 06:02:13;;;;;;;8.68;3.10;;;;;;;;;;5054920;28;20029;-77
2023/01/03 06:04:39;;;;;;;3.53;1.77;;;;;;;;;;5040287;28;20111;-77
2023/01/03 06:07:05;;;;;;;7.32;2.30;;;;;;;;;;5052079;28;20056;-77
2023/01/03 06:09:31;;;;;;;5.40;2.17;;;;;;;;;;5053255;28;20112;-77
2023/01/03 06:11:58;;;;;;;6.90;2.08;;;;;;;;;;5044378;28;20458;-76
2023/01/03 06:14:24;;;;;;;5.47;2.28;;;;;;;;;;5047375;28;20087;-77
2023/01/03 06:19:34;;;;;;;7.32;2.58;;;;;;;;;;5045598;28;20047;-77
2023/01/03 06:22:00;;;;;;;8.02;2.35;;;;;;;;;;5046966;28;20416;-76
2023/01/03 06:24:26;;;;;;;3.85;2.45;;;;;;;;;;5049792;28;20047;-76
2023/01/03 06:26:52;;;;;;;6.85;2.80;;;;;;;;;;5046529;28;20025;-77
2023/01/03 06:29:19;;;;;;;7.63;3.20;;;;;;;;;;5051955;28;20025;-77
2023/01/03 06:31:45;;;;;;;10.65;2.95;;;;;;;;;;5045072;28;20017;-76
2023/01/03 06:34:11;;;;;;;4.88;3.05;;;;;;;;;;5052216;28;20021;-76
2023/01/03 06:36:37;;;;;;;7.20;2.38;;;;;;;;;;5051416;28;20025;-76
2023/01/03 06:39:03;;;;;;;6.10;2.10;;;;;;;;;;5036751;28;20045;-77
2023/01/03 06:41:30;;;;;;;10.30;2.60;;;;;;;;;;5047169;28;20061;-77
2023/01/03 06:43:56;;;;;;;14.02;3.20;;;;;;;;;;5042045;28;20045;-77
2023/01/03 06:54:42;;;;;;;9.98;2.95;;;;;;;;;;5051322;28;20051;-77
2023/01/03 06:57:08;;;;;;;10.05;3.35;;;;;;;;;;5050849;28;20699;-77
2023/01/03 06:59:34;;;;;;;12.75;3.30;;;;;;;;;;5048761;28;20021;-77
2023/01/03 07:02:00;;;;;;;12.48;3.40;;;;;;;;;;5050087;28;20025;-76
2023/01/03 07:04:27;;;;;;;16.73;3.40;;;;;;;;;;5047285;28;20083;-77
2023/01/03 07:06:53;;;;;;;11.38;3.30;;;;;;;;;;5050030;28;20025;-77
2023/01/03 07:09:19;;;;;;;11.13;3.03;;;;;;;;;;5052504;28;20071;-76
2023/01/03 07:11:45;;;;;;;15.82;4.25;;;;;;;;;;5057720;28;20074;-77
2023/01/03 07:14:12;;;;;;;17.83;3.53;;;;;;;;;;5050176;28;20127;-77
2023/01/03 07:16:39;;;;;;;11.73;3.58;;;;;;;;;;5052026;28;20098;-76
2023/01/03 07:19:06;;;;;;;15.15;4.57;;;;;;;;;;5046893;28;20052;-77
2023/01/03 07:21:33;;;;;;;14.65;3.33;;;;;;;;;;5047456;28;20577;-77
2023/01/03 07:24:00;;;;;;;11.73;3.13;;;;;;;;;;5040994;28;20188;-76
2023/01/03 07:26:29;;;;;;;20.48;4.10;;;;;;;;;;5042376;28;20110;-76
2023/01/03 07:28:55;;;;;;;14.90;4.72;;;;;;;;;;5044970;28;20410;-77
2023/01/03 07:31:21;;;;;;;15.40;3.90;;;;;;;;;;5043874;28;20025;-76
2023/01/03 07:33:47;;;;;;;21.45;5.78;;;;;;;;;;5045713;28;20040;-76
2023/01/03 07:36:14;;;;;;;11.80;3.80;;;;;;;;;;5041405;28;20025;-77
2023/01/03 07:38:42;;;;;;;20.88;4.63;;;;;;;;;;5047700;28;20053;-76
2023/01/03 07:41:09;;;;;;;20.63;3.75;;;;;;;;;;5051155;28;20048;-77
2023/01/03 07:43:36;;;;;;;18.42;4.35;;;;;;;;;;5041513;28;20035;-77
2023/01/03 07:46:13;;;;;;;16.20;4.40;;;;;;;;;;5049211;28;20033;-77
2023/01/03 07:48:39;;;;;;;13.20;3.88;;;;;;;;;;5043999;28;20493;-77
2023/01/03 07:51:06;;;;;;;16.13;4.45;;;;;;;;;;5038960;28;20031;-77
2023/01/03 07:53:33;;;;;;;16.88;3.55;;;;;;;;;;5047228;28;20017;-77
2023/01/03 07:56:06;;;;;;;17.23;5.15;;;;;;;;;;5043425;28;20091;-77
2023/01/03 07:58:33;;;;;;;21.65;5.80;;;;;;;;;;5046042;28;20029;-77
2023/01/03 08:01:06;;;;;;;21.42;4.82;;;;;;;;;;5048419;28;20075;-76
2023/01/03 08:03:32;;;;;;;18.33;4.75;;;;;;;;;;5037935;28;20378;-77
2023/01/03 08:06:03;;;;;;;16.63;4.63;;;;;;;;;;5050008;28;20787;-78
2023/01/03 08:08:30;;;;;;;15.52;4.88;;;;;;;;;;5040058;28;20409;-77
2023/01/03 08:13:41;;;;;;;20.98;6.53;;;;;;;;;;5043901;28;20044;-77
2023/01/03 08:16:09;;;;;;;24.92;5.30;;;;;;;;;;5040370;28;20045;-76
2023/01/03 08:18:35;;;;;;;19.38;5.30;;;;;;;;;;5045523;28;20040;-76
2023/01/03 08:21:01;;;;;;;13.88;4.70;;;;;;;;;;5048028;28;20024;-77
2023/01/03 08:23:28;;;;;;;19.77;4.53;;;;;;;;;;5045239;28;20035;-78
2023/01/03 08:26:05;;;;;;;20.15;5.38;;;;;;;;;;5045768;28;20564;-77
2023/01/03 08:28:31;;;;;;;18.00;6.07;;;;;;;;;;5047910;28;20068;-77
2023/01/03 08:30:59;;;;;;;22.95;5.22;;;;;;;;;;5043824;28;20445;-77
2023/01/03 08:33:26;;;;;;;15.02;4.80;;;;;;;;;;5040654;28;20017;-78
2023/01/03 08:35:55;;;;;;;17.35;4.78;;;;;;;;;;5036700;28;20029;-78
2023/01/03 08:38:24;;;;;;;26.40;5.47;;;;;;;;;;5045911;28;20041;-78
2023/01/03 08:40:50;;;;;;;17.60;5.38;;;;;;;;;;5043848;28;20053;-77
2023/01/03 08:43:17;;;;;;;17.73;5.07;;;;;;;;;;5042890;28;20029;-77
2023/01/03 08:45:43;;;;;;;12.80;4.32;;;;;;;;;;5042261;28;20221;-77
2023/01/03 08:48:10;;;;;;;19.92;5.18;;;;;;;;;;5041381;28;20087;-77
2023/01/03 08:50:36;;;;;;;17.20;4.78;;;;;;;;;;5049117;28;20021;-77
2023/01/03 08:53:04;;;;;;;13.02;5.03;;;;;;;;;;5043213;28;20132;-77
2023/01/03 08:55:30;;;;;;;18.38;4.38;;;;;;;;;;5044626;28;20025;-77
2023/01/03 08:57:58;;;;;;;12.35;3.90;;;;;;;;;;5049241;28;20029;-77
2023/01/03 09:00:24;;;;;;;19.55;4.32;;;;;;;;;;5046129;28;20021;-77
2023/01/03 09:02:50;;;;;;;15.75;5.35;;;;;;;;;;5042130;28;20490;-77
2023/01/03 09:05:16;;;;;;;16.33;4.68;;;;;;;;;;5044765;28;20071;-77
2023/01/03 09:07:43;;;;;;;17.92;4.95;;;;;;;;;;5045183;28;20120;-76
2023/01/03 09:10:09;;;;;;;13.32;3.83;;;;;;;;;;5038416;28;20022;-76
2023/01/03 09:12:36;;;;;;;14.32;4.53;;;;;;;;;;5046354;28;20028;-77
2023/01/03 09:15:02;;;;;;;14.00;4.32;;;;;;;;;;5041770;28;20033;-77
2023/01/03 09:17:28;;;;;;;15.57;3.60;;;;;;;;;;5044700;28;20024;-77
2023/01/03 09:19:55;;;;;;;15.45;3.70;;;;;;;;;;5043209;28;20029;-77
2023/01/03 09:22:21;;;;;;;10.23;4.30;;;;;;;;;;5042867;28;20686;-77
2023/01/03 09:24:47;;;;;;;16.17;4.97;;;;;;;;;;5045904;28;20675;-77
2023/01/03 09:27:13;;;;;;;14.68;4.55;;;;;;;;;;5053778;28;20111;-77
2023/01/03 09:29:39;;;;;;;13.02;3.83;;;;;;;;;;5047496;28;20565;-77
2023/01/03 09:32:05;;;;;;;13.30;4.15;;;;;;;;;;5047618;28;20052;-77
2023/01/03 09:34:31;;;;;;;11.85;3.58;;;;;;;;;;5044343;28;20056;-77
2023/01/03 09:36:57;;;;;;;9.25;2.85;;;;;;;;;;5046806;28;20029;-77
2023/01/03 09:39:23;;;;;;;9.00;3.13;;;;;;;;;;5051658;28;20101;-77
2023/01/03 09:43:11;;;;;;;10.00;3.33;;;;;;;;;;5050510;28;20485;-77
2023/01/03 09:44:38;;;;;;;10.00;3.25;;;;;;;;;;5044671;28;20065;-77
2023/01/03 09:47:04;;;;;;;11.27;3.03;;;;;;;;;;5048739;28;21334;-77
2023/01/03 09:49:31;;;;;;;12.13;3.15;;;;;;;;;;5052135;28;20021;-77
2023/01/03 10:06:01;;;;;;;6.18;2.78;;;;;;;;;;5044726;28;20132;-77
2023/01/03 10:08:38;;;;;;;9.52;2.45;;;;;;;;;;5049665;28;20039;-77
2023/01/03 10:11:09;;;;;;;6.07;2.38;;;;;;;;;;5043981;28;20032;-76
2023/01/03 10:13:53;;;;;;;6.78;2.28;;;;;;;;;;5044908;28;20028;-76
2023/01/03 10:16:19;;;;;;;5.43;2.33;;;;;;;;;;5040644;28;20037;-76
2023/01/03 10:19:11;;;;;;;6.40;2.55;;;;;;;;;;5044935;28;20029;-76
2023/01/03 10:21:47;;;;;;;7.20;2.67;;;;;;;;;;5038469;28;20453;-76
2023/01/03 10:24:18;;;;;;;8.93;2.53;;;;;;;;;;5066198;28;20033;-77
2023/01/03 10:26:44;;;;;;;5.03;2.42;;;;;;;;;;5044291;28;21236;-76
2023/01/03 10:29:12;;;;;;;7.13;1.98;;;;;;;;;;5042071;28;21225;-76
2023/01/03 10:31:54;;;;;;;5.60;2.10;;;;;;;;;;5047960;28;21841;-76
2023/01/03 10:34:20;;;;;;;5.50;2.42;;;;;;;;;;5047218;28;20029;-76
2023/01/03 10:36:46;;;;;;;6.00;2.58;;;;;;;;;;5045493;28;20036;-75
2023/01/03 10:39:12;;;;;;;5.40;2.38;;;;;;;;;;5046413;28;20045;-77
2023/01/03 10:41:46;;;;;;;8.30;2.15;;;;;;;;;;5042668;28;20033;-75
2023/01/03 10:44:24;;;;;;;5.40;1.90;;;;;;;;;;5049685;28;20033;-76
2023/01/03 10:46:52;;;;;;;5.10;2.25;;;;;;;;;;5040265;28;20033;-77
2023/01/03 10:49:20;;;;;;;7.53;2.20;;;;;;;;;;5043847;28;20477;-76
2023/01/03 10:51:46;;;;;;;5.82;2.63;;;;;;;;;;5047554;28;20039;-76
2023/01/03 10:54:12;;;;;;;4.63;2.22;;;;;;;;;;5045589;28;20024;-76
2023/01/03 10:56:38;;;;;;;3.17;1.73;;;;;;;;;;5042643;28;20063;-75
2023/01/03 10:59:16;;;;;;;2.30;1.75;;;;;;;;;;5050696;28;20029;-76
2023/01/03 11:01:56;;;;;;;5.07;1.90;;;;;;;;;;5042978;28;20094;-76
2023/01/03 11:04:22;;;;;;;6.38;2.33;;;;;;;;;;5041986;28;21340;-76
2023/01/03 11:06:58;;;;;;;4.90;2.17;;;;;;;;;;5043439;28;20123;-76
2023/01/03 11:09:27;;;;;;;3.53;1.92;;;;;;;;;;5040737;28;20123;-77
2023/01/03 11:11:54;;;;;;;3.35;1.80;;;;;;;;;;5042888;28;20033;-76
2023/01/03 11:14:25;;;;;;;1.88;1.73;;;;;;;;;;5038909;28;20109;-76
2023/01/03 11:16:55;;;;;;;7.68;1.70;;;;;;;;;;5044120;28;20079;-76
2023/01/03 11:19:25;;;;;;;2.38;1.40;;;;;;;;;;5045787;28;20039;-79
2023/01/03 11:21:54;;;;;;;2.15;1.35;;;;;;;;;;5043124;28;20451;-77
2023/01/03 11:24:26;;;;;;;1.00;1.00;;;;;;;;;;5039572;28;20958;-77
2023/01/03 11:27:02;;;;;;;1.15;1.15;;;;;;;;;;5037546;28;20056;-76
2023/01/03 11:29:31;;;;;;;1.17;1.17;;;;;;;;;;5037945;28;20493;-77
2023/01/03 11:32:00;;;;;;;1.08;1.02;;;;;;;;;;5047549;28;20056;-76
2023/01/03 11:34:46;;;;;;;1.25;1.20;;;;;;;;;;5041404;28;20088;-77
2023/01/03 11:37:16;;;;;;;1.38;1.27;;;;;;;;;;5042232;28;20422;-77
2023/01/03 11:40:02;;;;;;;1.27;1.27;;;;;;;;;;5044495;28;20068;-77
2023/01/03 11:42:47;;;;;;;1.10;1.10;;;;;;;;;;5042859;28;20029;-76
2023/01/03 11:45:32;;;;;;;1.00;1.00;;;;;;;;;;5048129;28;20024;-78
2023/01/03 11:48:16;;;;;;;1.27;1.17;;;;;;;;;;5046041;28;20029;-76
2023/01/03 11:50:52;;;;;;;1.27;1.27;;;;;;;;;;5041267;28;20041;-77
2023/01/03 11:53:47;;;;;;;2.50;1.20;;;;;;;;;;5058164;28;20068;-77
2023/01/03 11:56:19;;;;;;;1.75;1.35;;;;;;;;;;5034103;28;20054;-77
2023/01/03 11:59:05;;;;;;;1.35;1.05;;;;;;;;;;5041914;28;20024;-77
2023/01/03 12:01:50;;;;;;;1.20;1.20;;;;;;;;;;5046741;28;20481;-77
2023/01/03 12:04:37;;;;;;;1.10;1.10;;;;;;;;;;5043788;28;20117;-77
2023/01/03 12:07:09;;;;;;;1.27;1.20;;;;;;;;;;5015576;28;20029;-76
2023/01/03 12:09:54;;;;;;;1.42;1.33;;;;;;;;;;5044209;28;20032;-76
2023/01/03 12:12:28;;;;;;;2.03;1.88;;;;;;;;;;5042587;28;20028;-77
2023/01/03 12:14:58;;;;;;;1.33;1.30;;;;;;;;;;5042830;28;20032;-78
2023/01/03 12:17:37;;;;;;;1.95;1.35;;;;;;;;;;5044265;28;20035;-77
2023/01/03 12:20:11;;;;;;;2.10;1.50;;;;;;;;;;5042604;28;20448;-77
2023/01/03 12:22:40;;;;;;;1.67;1.45;;;;;;;;;;5044557;28;20032;-76
2023/01/03 12:25:19;;;;;;;1.63;1.52;;;;;;;;;;5042953;28;20035;-76
2023/01/03 12:28:09;;;;;;;1.50;1.40;;;;;;;;;;5037156;28;20032;-77
2023/01/03 12:30:44;;;;;;;1.30;1.20;;;;;;;;;;5036304;28;20055;-77
2023/01/03 12:33:13;;;;;;;8.85;1.77;;;;;;;;;;5039743;28;20175;-77
2023/01/03 12:35:52;;;;;;;1.48;1.40;;;;;;;;;;5043156;28;20049;-77
2023/01/03 12:38:20;;;;;;;1.60;1.50;;;;;;;;;;5045580;28;20103;-77
2023/01/03 12:40:51;;;;;;;1.33;1.33;;;;;;;;;;5042803;28;20031;-77
2023/01/03 12:43:26;;;;;;;1.77;1.50;;;;;;;;;;5040051;28;20033;-77
2023/01/03 12:46:04;;;;;;;1.15;1.13;;;;;;;;;;5038117;28;21391;-77
2023/01/03 12:48:30;;;;;;;3.05;1.52;;;;;;;;;;5045768;28;20061;-77
2023/01/03 12:50:57;;;;;;;1.90;1.70;;;;;;;;;;5050331;28;20036;-78
2023/01/03 12:53:38;;;;;;;2.08;1.63;;;;;;;;;;5071475;28;20079;-77
2023/01/03 12:56:10;;;;;;;2.70;2.40;;;;;;;;;;5048599;28;20028;-76
2023/01/03 12:58:45;;;;;;;1.95;1.80;;;;;;;;;;5048563;28;20028;-77
2023/01/03 13:01:16;;;;;;;3.08;1.63;;;;;;;;;;5045198;28;20517;-77
2023/01/03 13:03:48;;;;;;;2.55;1.73;;;;;;;;;;5048489;28;20037;-77
2023/01/03 13:06:26;;;;;;;2.47;1.40;;;;;;;;;;5045817;28;20036;-76
2023/01/03 13:08:59;;;;;;;2.42;1.40;;;;;;;;;;5040826;28;20115;-76
2023/01/03 13:11:25;;;;;;;1.67;1.30;;;;;;;;;;5050042;28;20664;-76
2023/01/03 13:13:59;;;;;;;3.55;1.50;;;;;;;;;;5050091;28;20023;-77
2023/01/03 13:16:31;;;;;;;2.28;1.55;;;;;;;;;;5047842;28;20027;-77
2023/01/03 13:19:17;;;;;;;2.65;1.70;;;;;;;;;;5043456;28;20043;-77
2023/01/03 13:21:55;;;;;;;3.05;2.03;;;;;;;;;;5043958;28;20025;-76
2023/01/03 13:24:43;;;;;;;2.03;1.50;;;;;;;;;;5040806;28;20029;-77
2023/01/03 13:27:29;;;;;;;1.95;1.42;;;;;;;;;;5048689;28;20047;-77
2023/01/03 13:29:58;;;;;;;3.05;1.60;;;;;;;;;;5040976;28;20054;-77
2023/01/03 13:32:29;;;;;;;2.28;2.08;;;;;;;;;;5044668;28;20021;-77
2023/01/03 13:34:58;;;;;;;3.13;1.40;;;;;;;;;;5041770;28;20032;-77
2023/01/03 13:37:25;;;;;;;12.93;7.13;;;;;;;;;;5044160;28;20079;-76
2023/01/03 13:39:51;;;;;;;1.90;1.75;;;;;;;;;;5041182;28;20041;-76
2023/01/03 13:42:22;;;;;;;1.45;1.30;;;;;;;;;;5044948;28;20029;-76
2023/01/03 13:44:49;;;;;;;3.53;1.70;;;;;;;;;;5055907;28;20029;-76
2023/01/03 13:47:46;;;;;;;3.05;2.25;;;;;;;;;;5041444;28;20051;-78
2023/01/03 13:50:29;;;;;;;5.45;2.97;;;;;;;;;;5042392;28;20041;-76
2023/01/03 13:52:56;;;;;;;23.15;16.85;;;;;;;;;;5043940;28;20079;-76
2023/01/03 13:55:39;;;;;;;3.50;2.20;;;;;;;;;;5043341;28;20029;-76
2023/01/03 13:58:26;;;;;;;4.53;2.38;;;;;;;;;;5050436;28;20032;-76
2023/01/03 14:00:58;;;;;;;5.43;4.15;;;;;;;;;;5051487;28;20078;-76
2023/01/03 14:03:24;;;;;;;2.13;1.67;;;;;;;;;;5043542;28;20029;-76
2023/01/03 14:06:00;;;;;;;2.40;2.05;;;;;;;;;;5049794;28;20009;-76
2023/01/03 14:08:34;;;;;;;4.53;4.13;;;;;;;;;;5047345;28;20040;-76
2023/01/03 14:11:03;;;;;;;3.85;2.30;;;;;;;;;;5049477;28;20129;-76
2023/01/03 14:13:37;;;;;;;5.90;2.80;;;;;;;;;;5047239;28;20032;-76
2023/01/03 14:16:26;;;;;;;3.58;2.42;;;;;;;;;;5048734;28;20507;-76
2023/01/03 14:19:00;;;;;;;3.72;2.00;;;;;;;;;;5045098;28;20049;-76
2023/01/03 14:21:30;;;;;;;3.88;2.53;;;;;;;;;;5045457;28;20134;-76
2023/01/03 14:23:57;;;;;;;4.13;2.63;;;;;;;;;;5049050;28;20762;-77
2023/01/03 14:26:23;;;;;;;3.20;1.90;;;;;;;;;;5050046;28;20462;-76
2023/01/03 14:28:52;;;;;;;3.03;2.42;;;;;;;;;;5045988;28;20508;-76
2023/01/03 14:31:26;;;;;;;5.20;2.90;;;;;;;;;;5051423;28;20056;-76
2023/01/03 14:33:59;;;;;;;7.82;7.10;;;;;;;;;;5044512;28;20071;-76
2023/01/03 14:36:25;;;;;;;3.53;2.22;;;;;;;;;;5048576;28;20040;-76
2023/01/03 14:38:53;;;;;;;2.42;2.03;;;;;;;;;;5046427;28;20596;-76
2023/01/03 14:41:22;;;;;;;4.75;2.45;;;;;;;;;;5045240;28;20033;-76
2023/01/03 14:43:48;;;;;;;2.80;2.35;;;;;;;;;;5047787;28;20068;-76
2023/01/03 14:46:14;;;;;;;3.08;2.30;;;;;;;;;;5042184;28;20028;-77
2023/01/03 14:48:45;;;;;;;3.67;3.28;;;;;;;;;;5047795;28;20033;-76
2023/01/03 14:51:12;;;;;;;4.95;3.80;;;;;;;;;;5048865;28;20201;-76
2023/01/03 14:53:38;;;;;;;3.80;2.70;;;;;;;;;;5046523;28;20539;-76
2023/01/03 14:56:05;;;;;;;4.72;3.42;;;;;;;;;;5046886;28;20029;-76
2023/01/03 14:58:31;;;;;;;5.82;2.20;;;;;;;;;;5034923;28;20029;-76
2023/01/03 15:00:58;;;;;;;3.78;2.20;;;;;;;;;;5041367;28;20566;-76
2023/01/03 15:03:25;;;;;;;2.38;1.95;;;;;;;;;;5048569;28;20024;-76
2023/01/03 15:05:53;;;;;;;3.00;2.03;;;;;;;;;;5040418;28;20049;-77
2023/01/03 15:08:19;;;;;;;4.82;2.40;;;;;;;;;;5034937;28;20619;-76
2023/01/03 15:11:07;;;;;;;9.75;6.38;;;;;;;;;;5049003;28;20021;-76
2023/01/03 15:13:52;;;;;;;7.85;7.10;;;;;;;;;;5031238;28;20029;-77
2023/01/03 15:16:39;;;;;;;3.67;2.83;;;;;;;;;;5038291;28;20025;-76
2023/01/03 15:19:13;;;;;;;4.95;3.90;;;;;;;;;;5048700;28;20052;-76
2023/01/03 15:21:40;;;;;;;4.90;3.97;;;;;;;;;;5040749;28;20243;-76
2023/01/03 15:24:12;;;;;;;3.88;2.25;;;;;;;;;;5046636;28;20129;-76
2023/01/03 15:26:44;;;;;;;1.95;1.83;;;;;;;;;;5047091;28;20134;-76
2023/01/03 15:29:14;;;;;;;4.28;2.47;;;;;;;;;;5048734;28;20430;-76
2023/01/03 15:31:59;;;;;;;3.80;2.20;;;;;;;;;;5043978;28;20032;-77
2023/01/03 15:34:28;;;;;;;2.75;2.00;;;;;;;;;;5037376;28;20634;-76
2023/01/03 15:36:56;;;;;;;3.28;2.40;;;;;;;;;;5034633;28;20018;-76
2023/01/03 15:39:24;;;;;;;4.15;2.50;;;;;;;;;;5048211;28;20098;-76
2023/01/03 15:44:39;;;;;;;4.93;2.95;;;;;;;;;;5047546;28;20071;-76
2023/01/03 15:47:07;;;;;;;3.25;2.42;;;;;;;;;;5048401;28;20060;-76
2023/01/03 15:49:39;;;;;;;3.20;2.83;;;;;;;;;;5032091;28;20429;-76
2023/01/03 15:52:05;;;;;;;4.10;3.17;;;;;;;;;;5045641;28;20094;-76
2023/01/03 15:54:31;;;;;;;5.85;4.47;;;;;;;;;;5041503;28;20112;-77
2023/01/03 15:57:04;;;;;;;5.85;4.78;;;;;;;;;;5048244;28;20424;-76
2023/01/03 15:59:35;;;;;;;4.30;3.05;;;;;;;;;;5048764;28;21148;-76
2023/01/03 16:02:01;;;;;;;4.32;2.97;;;;;;;;;;5041768;28;20029;-76
2023/01/03 16:04:28;;;;;;;4.05;2.90;;;;;;;;;;5045520;28;20123;-76